Time;durP1;ratioP1;P1;durP2;ratioP2;P2;SDS_P1;SDS_P2;PMS_P1;PMS_P2;Temp;Humidity;BMP_temperature;BMP_pressure;BME280_temperature;BME280_humidity;BME280_pressure;Samples;Min_cycle;Max_cycle;Signal;HPM_P1;HPM_P2
2023/04/06 00:01:25;;;;;;;10.70;7.67;;;;;;;1.30;100.00;100403.50;5034743;28;20243;-68
2023/04/06 00:03:51;;;;;;;10.00;7.73;;;;;;;1.27;100.00;100401.03;5033109;28;20174;-68
2023/04/06 00:06:16;;;;;;;10.50;7.10;;;;;;;1.25;100.00;100403.59;5034362;28;20209;-67
2023/04/06 00:08:42;;;;;;;10.73;8.20;;;;;;;1.18;100.00;100394.38;5033065;28;20424;-66
2023/04/06 00:11:07;;;;;;;10.97;8.13;;;;;;;1.12;100.00;100395.25;5031655;28;20600;-67
2023/04/06 00:13:32;;;;;;;9.47;7.73;;;;;;;1.04;100.00;100394.53;5041096;28;20215;-67
2023/04/06 00:15:58;;;;;;;12.27;8.43;;;;;;;0.95;100.00;100395.44;5033909;28;20273;-67
2023/04/06 00:18:23;;;;;;;11.20;7.60;;;;;;;0.87;100.00;100389.63;5049311;28;20236;-68
2023/04/06 00:20:48;;;;;;;8.50;7.53;;;;;;;0.77;100.00;100391.41;5028998;28;20222;-68
2023/04/06 00:23:14;;;;;;;8.30;7.33;;;;;;;0.75;100.00;100393.09;5043253;28;20186;-67
2023/04/06 00:25:39;;;;;;;10.60;7.33;;;;;;;0.67;100.00;100387.28;5033860;28;20213;-67
2023/04/06 00:28:05;;;;;;;9.40;7.10;;;;;;;0.63;100.00;100391.53;5048900;28;20528;-67
2023/04/06 00:30:30;;;;;;;9.37;7.27;;;;;;;0.53;100.00;100397.50;5025761;28;20645;-68
2023/04/06 00:32:55;;;;;;;9.80;7.73;;;;;;;0.49;100.00;100395.88;5044637;28;20202;-67
2023/04/06 00:35:21;;;;;;;9.73;7.90;;;;;;;0.41;100.00;100393.41;5032582;28;20536;-67
2023/04/06 00:37:47;;;;;;;11.60;7.33;;;;;;;0.39;100.00;100390.03;5033554;28;20184;-67
2023/04/06 00:40:13;;;;;;;9.80;7.87;;;;;;;0.31;100.00;100381.66;5024649;28;20610;-67
2023/04/06 00:42:38;;;;;;;10.83;7.83;;;;;;;0.27;100.00;100380.00;5047055;28;20206;-67
2023/04/06 00:45:04;;;;;;;12.57;8.07;;;;;;;0.24;100.00;100375.00;5048497;28;20601;-67
2023/04/06 00:47:29;;;;;;;10.40;8.17;;;;;;;0.21;100.00;100369.94;5033640;28;20223;-68
2023/04/06 00:49:55;;;;;;;8.10;7.13;;;;;;;0.09;100.00;100371.72;5033611;28;20265;-67
2023/04/06 00:52:20;;;;;;;11.00;7.70;;;;;;;0.07;100.00;100375.94;5038267;28;20372;-67
2023/04/06 00:54:46;;;;;;;9.87;7.70;;;;;;;0.01;100.00;100365.03;5033880;28;20577;-67
2023/04/06 00:57:12;;;;;;;9.63;7.33;;;;;;;-0.06;100.00;100360.00;5033158;28;20681;-66
2023/04/06 00:59:38;;;;;;;8.93;8.03;;;;;;;-0.09;100.00;100370.13;5033023;28;20213;-67
2023/04/06 01:02:04;;;;;;;8.83;7.93;;;;;;;-0.28;100.00;100366.06;5024771;28;20662;-67
2023/04/06 01:04:29;;;;;;;10.00;7.63;;;;;;;-0.22;100.00;100368.53;5033100;28;20182;-67
2023/04/06 01:06:55;;;;;;;13.37;8.30;;;;;;;-0.26;100.00;100367.72;5030606;28;20228;-67
2023/04/06 01:09:21;;;;;;;9.57;8.23;;;;;;;-0.31;100.00;100361.00;5032956;28;20228;-67
2023/04/06 01:11:46;;;;;;;9.33;8.17;;;;;;;-0.27;100.00;100362.66;5035821;28;20225;-67
2023/04/06 01:14:11;;;;;;;9.40;8.07;;;;;;;-0.26;100.00;100355.09;5035022;28;20535;-67
2023/04/06 01:16:37;;;;;;;11.30;9.00;;;;;;;-0.25;100.00;100356.75;5032591;28;20197;-67
2023/04/06 01:19:10;;;;;;;9.60;8.60;;;;;;;-0.33;100.00;100361.84;5032416;28;20269;-66
2023/04/06 01:21:36;;;;;;;10.17;7.73;;;;;;;-0.25;100.00;100351.72;5034398;28;20217;-67
2023/04/06 01:24:02;;;;;;;10.27;8.63;;;;;;;-0.29;100.00;100352.56;5036066;28;20174;-67
2023/04/06 01:26:29;;;;;;;10.80;9.20;;;;;;;-0.34;100.00;100347.50;5032597;28;20197;-67
2023/04/06 01:28:54;;;;;;;10.60;8.33;;;;;;;-0.36;100.00;100348.38;5032570;28;20178;-67
2023/04/06 01:31:20;;;;;;;11.20;8.43;;;;;;;-0.42;100.00;100345.88;5024312;28;20229;-66
2023/04/06 01:33:45;;;;;;;10.37;8.00;;;;;;;-0.44;100.00;100352.66;5037763;28;20216;-67
2023/04/06 01:36:11;;;;;;;9.50;7.90;;;;;;;-0.48;100.00;100344.25;5031144;28;20281;-66
2023/04/06 01:38:36;;;;;;;9.67;8.10;;;;;;;-0.51;100.00;100345.09;5032391;28;20181;-66
2023/04/06 01:41:01;;;;;;;11.63;8.50;;;;;;;-0.57;100.00;100345.13;5029430;28;20300;-66
2023/04/06 01:43:27;;;;;;;8.67;7.83;;;;;;;-0.61;100.00;100345.97;5040103;28;20794;-66
2023/04/06 01:45:52;;;;;;;9.03;8.13;;;;;;;-0.67;100.00;100341.81;5032380;28;20240;-66
2023/04/06 01:48:17;;;;;;;9.87;8.60;;;;;;;-0.69;100.00;100332.56;5032525;28;20190;-66
2023/04/06 01:50:42;;;;;;;13.30;8.10;;;;;;;-0.65;100.00;100336.72;5026463;28;20304;-66
2023/04/06 01:53:08;;;;;;;9.50;8.43;;;;;;;-0.74;100.00;100331.75;5041046;28;20190;-66
2023/04/06 01:55:33;;;;;;;9.83;8.70;;;;;;;-0.72;100.00;100337.59;5047263;28;20650;-66
2023/04/06 01:57:59;;;;;;;10.70;8.40;;;;;;;-0.73;100.00;100331.72;5047564;28;20190;-66
2023/04/06 02:00:24;;;;;;;12.57;8.73;;;;;;;-0.84;100.00;100329.22;5024124;28;20256;-66
2023/04/06 02:02:49;;;;;;;9.90;7.70;;;;;;;-0.91;100.00;100331.78;5044193;28;20193;-66
2023/04/06 02:05:15;;;;;;;9.23;7.50;;;;;;;-0.83;100.00;100328.41;5031820;28;20261;-66
2023/04/06 02:07:40;;;;;;;10.67;8.67;;;;;;;-0.85;100.00;100332.59;5047327;28;20185;-67
2023/04/06 02:10:11;;;;;;;9.17;8.27;;;;;;;-0.95;100.00;100330.97;5021567;28;20248;-67
2023/04/06 02:12:37;;;;;;;10.37;8.50;;;;;;;-0.93;100.00;100338.53;5045843;28;20602;-67
2023/04/06 02:15:03;;;;;;;10.23;8.73;;;;;;;-0.92;100.00;100336.00;5047133;28;20281;-67
2023/04/06 02:17:28;;;;;;;11.23;8.80;;;;;;;-0.96;100.00;100336.03;5031522;28;20201;-66
2023/04/06 02:19:53;;;;;;;12.37;9.10;;;;;;;-0.98;100.00;100333.47;5031105;28;20212;-66
2023/04/06 02:22:19;;;;;;;9.93;8.30;;;;;;;-1.01;100.00;100338.56;5037156;28;20233;-66
2023/04/06 02:24:45;;;;;;;10.93;8.27;;;;;;;-0.93;100.00;100336.00;5046519;28;20815;-66
2023/04/06 02:27:10;;;;;;;11.00;8.77;;;;;;;-1.01;100.00;100330.97;5032021;28;20174;-67
2023/04/06 02:29:35;;;;;;;9.53;8.53;;;;;;;-1.06;100.00;100332.69;5031554;28;20204;-66
2023/04/06 02:32:01;;;;;;;9.57;8.57;;;;;;;-1.10;100.00;100333.53;5036616;28;20209;-67
2023/04/06 02:34:26;;;;;;;11.77;9.17;;;;;;;-1.10;100.00;100331.00;5031367;28;20185;-67
2023/04/06 02:36:51;;;;;;;10.80;9.67;;;;;;;-1.14;100.00;100327.66;5031735;28;20244;-67
2023/04/06 02:39:17;;;;;;;18.23;12.90;;;;;;;-1.08;100.00;100327.66;5030863;28;20231;-67
2023/04/06 02:41:42;;;;;;;16.20;12.77;;;;;;;-1.10;100.00;100331.00;5034436;28;20271;-67
2023/04/06 02:44:08;;;;;;;17.90;13.03;;;;;;;-1.16;100.00;100325.13;5030138;28;20218;-66
2023/04/06 02:46:34;;;;;;;20.20;13.80;;;;;;;-1.18;100.00;100321.78;5031291;28;20186;-67
2023/04/06 02:49:00;;;;;;;17.87;11.67;;;;;;;-1.20;100.00;100325.16;5046151;28;20213;-67
2023/04/06 02:51:26;;;;;;;12.47;10.00;;;;;;;-1.19;100.00;100327.66;5032174;28;20225;-67
2023/04/06 02:53:51;;;;;;;13.10;9.60;;;;;;;-1.26;100.00;100328.53;5035578;28;20209;-67
2023/04/06 02:56:17;;;;;;;11.70;9.83;;;;;;;-1.27;100.00;100319.25;5031432;28;20261;-67
2023/04/06 02:58:42;;;;;;;17.63;12.47;;;;;;;-1.32;100.00;100318.44;5031137;28;20216;-67
2023/04/06 03:01:07;;;;;;;12.77;10.30;;;;;;;-1.28;100.00;100320.09;5018982;28;20348;-67
2023/04/06 03:03:32;;;;;;;16.30;10.80;;;;;;;-1.28;100.00;100320.09;5038626;28;20328;-67
2023/04/06 03:05:59;;;;;;;12.93;10.10;;;;;;;-1.30;100.00;100322.63;5029794;28;20205;-66
2023/04/06 03:08:24;;;;;;;12.57;9.17;;;;;;;-1.33;100.00;100319.28;5031084;28;20181;-67
2023/04/06 03:10:50;;;;;;;14.63;10.80;;;;;;;-1.38;100.00;100323.50;5026305;28;20236;-66
2023/04/06 03:13:15;;;;;;;12.00;9.83;;;;;;;-1.31;100.00;100320.94;5040697;28;20286;-67
2023/04/06 03:15:41;;;;;;;12.33;9.37;;;;;;;-1.29;100.00;100320.94;5025940;28;20237;-66
2023/04/06 03:18:06;;;;;;;10.43;9.30;;;;;;;-1.35;100.00;100321.81;5041382;28;20312;-66
2023/04/06 03:20:31;;;;;;;11.77;8.97;;;;;;;-1.41;100.00;100318.47;5022144;28;20262;-66
2023/04/06 03:22:57;;;;;;;12.47;9.57;;;;;;;-1.43;100.00;100322.69;5042494;28;20177;-66
2023/04/06 03:25:23;;;;;;;13.33;9.33;;;;;;;-1.48;100.00;100321.00;5046315;28;20189;-66
2023/04/06 03:27:48;;;;;;;11.80;9.13;;;;;;;-1.46;100.00;100323.53;5031481;28;20178;-67
2023/04/06 03:30:13;;;;;;;13.30;10.83;;;;;;;-1.50;100.00;100324.34;5021476;28;20182;-66
2023/04/06 03:32:39;;;;;;;14.00;9.97;;;;;;;-1.58;100.00;100333.63;5081213;28;20534;-66
2023/04/06 03:35:04;;;;;;;10.87;8.87;;;;;;;-1.57;100.00;100323.53;5042619;28;20178;-66
2023/04/06 03:37:30;;;;;;;10.53;9.43;;;;;;;-1.59;100.00;100329.41;5055581;28;20254;-67
2023/04/06 03:39:55;;;;;;;12.73;9.33;;;;;;;-1.63;100.00;100326.06;5034401;28;20186;-67
2023/04/06 03:42:20;;;;;;;14.43;9.67;;;;;;;-1.64;100.00;100329.41;5039692;28;20267;-67
2023/04/06 03:44:46;;;;;;;14.80;11.03;;;;;;;-1.67;100.00;100327.72;5034679;28;20174;-66
2023/04/06 03:47:11;;;;;;;12.80;10.07;;;;;;;-1.69;100.00;100331.94;5049613;28;20186;-66
2023/04/06 03:49:36;;;;;;;14.73;11.00;;;;;;;-1.66;100.00;100328.59;5034202;28;20182;-66
2023/04/06 03:52:01;;;;;;;15.40;10.63;;;;;;;-1.67;100.00;100330.25;5039639;28;20315;-66
2023/04/06 03:54:27;;;;;;;14.07;10.07;;;;;;;-1.67;100.00;100335.31;5032845;28;20285;-66
2023/04/06 03:56:52;;;;;;;14.30;10.63;;;;;;;-1.59;100.00;100337.00;5034345;28;20192;-66
2023/04/06 03:59:17;;;;;;;14.00;9.87;;;;;;;-1.58;100.00;100339.50;5034280;28;20193;-66
2023/04/06 04:01:43;;;;;;;14.50;10.80;;;;;;;-1.64;100.00;100339.50;5036955;28;20232;-66
2023/04/06 04:04:08;;;;;;;11.40;9.60;;;;;;;-1.59;100.00;100335.28;5036684;28;20188;-66
2023/04/06 04:06:33;;;;;;;16.30;10.60;;;;;;;-1.54;100.00;100337.81;5034094;28;20260;-66
2023/04/06 04:08:59;;;;;;;14.63;10.47;;;;;;;-1.59;100.00;100339.50;5033048;28;20267;-67
2023/04/06 04:11:24;;;;;;;11.27;9.73;;;;;;;-1.58;100.00;100342.03;5034734;28;20691;-67
2023/04/06 04:13:50;;;;;;;12.87;10.03;;;;;;;-1.60;100.00;100340.34;5038810;28;20200;-67
2023/04/06 04:16:15;;;;;;;14.17;10.40;;;;;;;-1.59;100.00;100344.56;5033984;28;20205;-67
2023/04/06 04:18:43;;;;;;;13.93;11.27;;;;;;;-1.72;100.00;100347.09;5033568;28;20272;-67
2023/04/06 04:21:08;;;;;;;17.90;10.63;;;;;;;-1.82;100.00;100347.94;5032006;28;20320;-66
2023/04/06 04:23:33;;;;;;;14.43;11.17;;;;;;;-1.80;100.00;100346.22;5032308;28;20649;-66
2023/04/06 04:25:59;;;;;;;13.10;10.90;;;;;;;-1.78;100.00;100352.13;5034101;28;20192;-66
2023/04/06 04:28:24;;;;;;;15.20;10.80;;;;;;;-1.79;100.00;100353.81;5033856;28;20270;-66
2023/04/06 04:30:49;;;;;;;17.60;10.87;;;;;;;-1.78;100.00;100352.13;5029353;28;20370;-66
2023/04/06 04:33:15;;;;;;;12.80;10.60;;;;;;;-1.75;100.00;100347.06;5042755;28;20201;-66
2023/04/06 04:35:40;;;;;;;14.70;10.57;;;;;;;-1.75;100.00;100353.81;5033829;28;20667;-66
2023/04/06 04:38:06;;;;;;;16.37;10.00;;;;;;;-1.83;100.00;100358.84;5033411;28;20185;-66
2023/04/06 04:40:31;;;;;;;14.43;10.73;;;;;;;-1.82;100.00;100358.84;5026543;28;20692;-66
2023/04/06 04:42:56;;;;;;;14.60;10.93;;;;;;;-1.86;100.00;100356.31;5045116;28;20582;-67
2023/04/06 04:45:21;;;;;;;14.50;10.83;;;;;;;-1.82;100.00;100352.97;5033952;28;20189;-67
2023/04/06 04:47:47;;;;;;;12.43;9.60;;;;;;;-1.77;100.00;100358.84;5033695;28;20178;-67
2023/04/06 04:50:12;;;;;;;12.60;10.37;;;;;;;-1.80;100.00;100352.13;5038904;28;20646;-67
2023/04/06 04:52:37;;;;;;;14.87;10.70;;;;;;;-1.80;100.00;100351.28;5031717;28;20198;-71
2023/04/06 04:55:03;;;;;;;13.53;10.37;;;;;;;-1.72;100.00;100362.22;5033466;28;20181;-66
2023/04/06 04:57:29;;;;;;;12.67;10.93;;;;;;;-1.68;100.00;100363.88;5032077;28;20189;-66
2023/04/06 04:59:54;;;;;;;15.23;11.87;;;;;;;-1.68;100.00;100361.38;5033133;28;20181;-66
2023/04/06 05:02:20;;;;;;;12.63;10.63;;;;;;;-1.62;100.00;100360.53;5054926;28;20232;-66
2023/04/06 05:04:45;;;;;;;12.63;10.50;;;;;;;-1.62;100.00;100360.53;5033030;28;20239;-66
2023/04/06 05:07:10;;;;;;;19.80;10.80;;;;;;;-1.46;100.00;100358.84;5032982;28;20190;-66
2023/04/06 05:09:36;;;;;;;12.47;10.30;;;;;;;-1.43;100.00;100363.88;5032657;28;20243;-66
2023/04/06 05:12:01;;;;;;;11.40;10.10;;;;;;;-1.55;100.00;100363.88;5037814;28;20235;-67
2023/04/06 05:14:27;;;;;;;14.83;10.93;;;;;;;-1.38;100.00;100366.41;5032909;28;20185;-67
2023/04/06 05:16:53;;;;;;;12.60;10.17;;;;;;;-1.33;100.00;100364.72;5033218;28;20220;-67
2023/04/06 05:19:18;;;;;;;13.67;10.23;;;;;;;-1.24;100.00;100367.25;5043725;28;20189;-67
2023/04/06 05:21:44;;;;;;;13.20;11.30;;;;;;;-1.17;100.00;100366.34;5035172;28;20233;-68
2023/04/06 05:24:09;;;;;;;13.03;9.87;;;;;;;-1.08;100.00;100367.19;5031308;28;20651;-67
2023/04/06 05:26:35;;;;;;;14.17;11.13;;;;;;;-1.12;100.00;100365.53;5032367;28;20194;-67
2023/04/06 05:29:00;;;;;;;15.60;10.10;;;;;;;-0.96;100.00;100368.84;5032168;28;20256;-69
2023/04/06 05:31:26;;;;;;;14.93;10.43;;;;;;;-0.86;100.00;100365.44;5033397;28;20227;-68
2023/04/06 05:33:51;;;;;;;12.03;9.90;;;;;;;-0.71;100.00;100367.06;5031339;28;20225;-68
2023/04/06 05:36:17;;;;;;;17.43;10.43;;;;;;;-0.62;100.00;100367.06;5031041;28;20186;-67
2023/04/06 05:38:42;;;;;;;13.90;10.30;;;;;;;-0.52;100.00;100368.69;5032245;28;20185;-68
2023/04/06 05:41:07;;;;;;;13.27;10.43;;;;;;;-0.39;100.00;100371.16;5029919;28;20225;-67
2023/04/06 05:43:33;;;;;;;12.43;10.00;;;;;;;-0.29;100.00;100380.38;5031158;28;20629;-67
2023/04/06 05:45:58;;;;;;;12.60;10.83;;;;;;;-0.29;100.00;100380.38;5031866;28;20193;-67
2023/04/06 05:48:23;;;;;;;15.10;11.13;;;;;;;-0.11;100.00;100376.03;5032205;28;20545;-68
2023/04/06 05:50:50;;;;;;;14.93;9.97;;;;;;;0.07;100.00;100373.41;5042847;28;20304;-68
2023/04/06 05:53:15;;;;;;;12.03;10.23;;;;;;;0.21;100.00;100375.00;5040576;28;20197;-68
2023/04/06 05:55:41;;;;;;;13.33;10.27;;;;;;;0.36;100.00;100374.91;5032385;28;20186;-68
2023/04/06 05:58:06;;;;;;;15.20;10.30;;;;;;;0.51;100.00;100376.44;5032208;28;20179;-68
2023/04/06 06:00:31;;;;;;;14.40;10.10;;;;;;;0.63;100.00;100375.50;5024815;28;20319;-68
2023/04/06 06:02:57;;;;;;;14.87;9.90;;;;;;;0.77;100.00;100367.75;5030785;28;20180;-68
2023/04/06 06:05:22;;;;;;;13.60;10.37;;;;;;;0.92;100.00;100376.91;5032026;28;20673;-68
2023/04/06 06:07:47;;;;;;;10.80;9.17;;;;;;;1.05;100.00;100377.63;5030825;28;20285;-68
2023/04/06 06:10:13;;;;;;;13.03;9.70;;;;;;;1.22;100.00;100370.66;5037687;28;20598;-67
2023/04/06 06:12:38;;;;;;;12.83;9.67;;;;;;;1.41;100.00;100375.50;5045129;28;20285;-66
2023/04/06 06:15:04;;;;;;;13.53;10.83;;;;;;;1.60;100.00;100373.56;5031068;28;20234;-68
2023/04/06 06:17:29;;;;;;;11.63;10.07;;;;;;;1.78;100.00;100369.97;5030374;28;20661;-68
2023/04/06 06:19:55;;;;;;;13.13;11.23;;;;;;;1.78;100.00;100364.88;5038892;28;20240;-66
2023/04/06 06:22:20;;;;;;;11.57;10.00;;;;;;;1.83;100.00;100373.28;5037229;28;20236;-66
2023/04/06 06:24:45;;;;;;;12.00;8.93;;;;;;;1.92;100.00;100372.28;5031553;28;20537;-67
2023/04/06 06:27:10;;;;;;;12.20;9.53;;;;;;;2.09;100.00;100372.06;5031555;28;20268;-66
2023/04/06 06:29:36;;;;;;;22.10;9.53;;;;;;;2.12;100.00;100379.59;5029344;28;20196;-67
2023/04/06 06:32:01;;;;;;;12.60;10.13;;;;;;;2.16;100.00;100366.03;5036046;28;20623;-67
2023/04/06 06:34:26;;;;;;;13.90;8.67;;;;;;;2.03;100.00;100379.75;5030821;28;20189;-67
2023/04/06 06:36:54;;;;;;;12.00;9.80;;;;;;;2.08;100.00;100371.22;5030911;28;20190;-66
2023/04/06 06:39:19;;;;;;;12.87;9.07;;;;;;;2.30;100.00;100373.41;5030746;28;20600;-66
2023/04/06 06:41:45;;;;;;;10.73;8.73;;;;;;;2.57;100.00;100369.59;5034125;28;20262;-66
2023/04/06 06:44:10;;;;;;;13.27;8.67;;;;;;;3.13;100.00;100373.66;5033430;28;20199;-66
2023/04/06 06:46:35;;;;;;;13.07;8.40;;;;;;;3.99;100.00;100370.19;5046268;28;20175;-66
2023/04/06 06:49:01;;;;;;;13.93;8.67;;;;;;;4.72;96.68;100366.69;5030454;28;20202;-64
2023/04/06 06:51:26;;;;;;;12.53;9.37;;;;;;;5.74;90.89;100365.59;5032684;28;20306;-64
2023/04/06 06:53:51;;;;;;;12.23;8.23;;;;;;;7.27;75.41;100363.13;5036178;28;20201;-67
2023/04/06 06:56:17;;;;;;;14.10;8.03;;;;;;;8.51;63.64;100371.16;5045918;28;20551;-67
2023/04/06 06:58:42;;;;;;;9.40;7.47;;;;;;;10.11;53.43;100362.31;5030693;28;20182;-67
2023/04/06 07:01:07;;;;;;;14.00;7.20;;;;;;;11.19;49.73;100353.50;5018005;28;20724;-67
2023/04/06 07:03:33;;;;;;;13.73;6.90;;;;;;;11.82;44.42;100349.25;5029887;28;20185;-67
2023/04/06 07:05:59;;;;;;;8.43;7.00;;;;;;;12.02;44.38;100355.88;5050431;28;20672;-67
2023/04/06 07:08:24;;;;;;;11.30;7.30;;;;;;;12.89;40.99;100351.72;5034708;28;20196;-67
2023/04/06 07:10:56;;;;;;;10.23;6.50;;;;;;;13.20;40.66;100352.44;5041672;28;20590;-69
2023/04/06 07:13:22;;;;;;;9.60;7.37;;;;;;;14.58;37.38;100354.03;5031006;28;20270;-69
2023/04/06 07:15:49;;;;;;;11.63;7.73;;;;;;;15.08;36.75;100349.78;5030322;28;20708;-69
2023/04/06 07:18:14;;;;;;;9.27;7.33;;;;;;;15.24;35.28;100354.69;5044270;28;20166;-70
2023/04/06 07:20:39;;;;;;;13.10;7.77;;;;;;;15.20;35.71;100361.03;5028392;28;20229;-68
2023/04/06 07:23:05;;;;;;;9.23;7.23;;;;;;;15.62;35.06;100355.50;5045350;28;20642;-68
2023/04/06 07:25:30;;;;;;;9.27;7.23;;;;;;;16.00;33.12;100364.06;5033005;28;20185;-68
2023/04/06 07:27:56;;;;;;;13.17;8.47;;;;;;;15.08;34.44;100362.72;5034877;28;20316;-69
2023/04/06 07:30:22;;;;;;;10.47;7.50;;;;;;;15.52;34.21;100365.72;5008792;28;20212;-69
2023/04/06 07:32:47;;;;;;;8.67;6.87;;;;;;;17.08;32.58;100354.22;5063664;28;20201;-70
2023/04/06 07:35:15;;;;;;;11.57;7.27;;;;;;;16.34;32.42;100362.41;5053230;28;20188;-67
2023/04/06 07:37:40;;;;;;;9.40;7.33;;;;;;;15.92;33.32;100365.44;5041238;28;20317;-69
2023/04/06 07:40:06;;;;;;;12.47;8.00;;;;;;;17.36;31.23;100362.44;5041512;28;20253;-68
2023/04/06 07:42:32;;;;;;;10.70;7.20;;;;;;;16.25;30.93;100366.53;5048661;28;20889;-70
2023/04/06 07:44:58;;;;;;;11.57;7.30;;;;;;;15.59;31.95;100363.50;5034188;28;20182;-67
2023/04/06 07:47:23;;;;;;;14.20;7.53;;;;;;;14.38;34.62;100358.78;5034340;28;20209;-69
2023/04/06 07:49:49;;;;;;;10.07;7.53;;;;;;;15.05;33.90;100367.28;5033833;28;20174;-69
2023/04/06 07:52:14;;;;;;;8.60;7.70;;;;;;;15.99;32.85;100365.84;5038864;28;20839;-67
2023/04/06 07:54:41;;;;;;;10.47;7.40;;;;;;;16.48;31.84;100363.16;5034107;28;20253;-69
2023/04/06 07:57:06;;;;;;;12.33;7.33;;;;;;;16.68;30.71;100359.84;5049401;28;20178;-69
2023/04/06 07:59:32;;;;;;;13.13;8.00;;;;;;;14.92;32.32;100368.13;5033699;28;20182;-69
2023/04/06 08:01:57;;;;;;;10.10;6.97;;;;;;;15.27;32.03;100354.50;5037606;28;20236;-69
2023/04/06 08:04:22;;;;;;;8.23;7.47;;;;;;;16.57;30.56;100355.50;5034375;28;20188;-62
2023/04/06 08:06:48;;;;;;;8.20;7.17;;;;;;;16.24;31.38;100358.84;5034049;28;20226;-66
2023/04/06 08:09:13;;;;;;;7.90;6.70;;;;;;;16.22;32.75;100351.16;5033822;28;20190;-66
2023/04/06 08:11:38;;;;;;;9.50;7.17;;;;;;;17.22;31.07;100358.34;5035917;28;20704;-65
2023/04/06 08:14:03;;;;;;;9.70;7.83;;;;;;;16.61;30.75;100361.28;5036939;28;20608;-68
2023/04/06 08:16:29;;;;;;;9.37;7.60;;;;;;;15.17;33.17;100356.88;5032606;28;20204;-68
2023/04/06 08:18:54;;;;;;;9.73;7.37;;;;;;;16.39;30.03;100357.69;5031633;28;20272;-66
2023/04/06 08:21:20;;;;;;;8.77;6.80;;;;;;;17.02;30.07;100361.69;5033590;28;20249;-65
2023/04/06 08:23:46;;;;;;;12.17;7.93;;;;;;;17.61;30.21;100363.09;5039060;28;20201;-66
2023/04/06 08:26:11;;;;;;;11.47;7.20;;;;;;;17.86;29.23;100364.56;5033624;28;20185;-67
2023/04/06 08:28:37;;;;;;;8.60;6.40;;;;;;;18.08;28.43;100362.81;5033258;28;20174;-65
2023/04/06 08:31:06;;;;;;;7.57;6.70;;;;;;;17.56;27.59;100368.69;5020285;28;20501;-66
2023/04/06 08:33:35;;;;;;;7.53;6.50;;;;;;;18.12;27.67;100366.00;5055921;28;20198;-67
2023/04/06 08:36:13;;;;;;;8.30;6.67;;;;;;;19.12;26.45;100368.03;5032133;28;20236;-66
2023/04/06 08:38:39;;;;;;;8.93;6.37;;;;;;;18.05;27.37;100366.50;5024174;28;20189;-67
2023/04/06 08:41:09;;;;;;;9.47;7.23;;;;;;;18.25;27.32;100373.66;5030697;28;20224;-66
2023/04/06 08:43:42;;;;;;;21.63;7.40;;;;;;;18.19;28.26;100372.34;5040256;28;20422;-66
2023/04/06 08:46:09;;;;;;;8.73;7.20;;;;;;;16.35;31.21;100371.00;5032860;28;20314;-67
2023/04/06 08:48:35;;;;;;;8.13;7.40;;;;;;;18.51;30.07;100369.69;5033250;28;20273;-66
2023/04/06 08:51:02;;;;;;;8.43;7.07;;;;;;;18.43;28.80;100366.06;5029978;28;20945;-66
2023/04/06 08:53:27;;;;;;;7.90;7.20;;;;;;;18.24;28.67;100357.19;5040717;28;20205;-66
2023/04/06 08:55:54;;;;;;;7.07;6.30;;;;;;;17.26;29.80;100359.75;5032667;28;20183;-66
2023/04/06 08:58:21;;;;;;;8.23;7.43;;;;;;;17.72;29.57;100360.47;5032297;28;20190;-66
2023/04/06 09:00:47;;;;;;;8.77;7.60;;;;;;;16.67;30.86;100366.00;5027694;28;20221;-65
2023/04/06 09:03:13;;;;;;;7.63;6.30;;;;;;;16.78;31.05;100359.97;5042775;28;20193;-66
2023/04/06 09:05:39;;;;;;;7.67;6.93;;;;;;;16.30;31.71;100368.78;5033116;28;20182;-66
2023/04/06 09:08:05;;;;;;;7.27;6.57;;;;;;;18.28;30.39;100355.97;5031586;28;20656;-66
2023/04/06 09:10:32;;;;;;;7.73;6.93;;;;;;;17.39;30.50;100362.22;5024922;28;20233;-65
2023/04/06 09:13:05;;;;;;;8.63;7.60;;;;;;;18.72;28.51;100358.41;5044010;28;20205;-67
2023/04/06 09:15:31;;;;;;;7.80;7.00;;;;;;;18.81;29.14;100365.44;5032880;28;20287;-67
2023/04/06 09:17:56;;;;;;;10.70;7.43;;;;;;;18.29;29.00;100357.63;5032529;28;20264;-66
2023/04/06 09:20:25;;;;;;;8.00;7.20;;;;;;;17.88;30.62;100360.03;5024292;28;20725;-65
2023/04/06 09:22:50;;;;;;;8.23;7.40;;;;;;;19.23;27.97;100354.09;5044799;28;20186;-65
2023/04/06 09:25:22;;;;;;;8.33;7.53;;;;;;;18.01;28.92;100353.84;5047672;28;20169;-65
2023/04/06 09:27:49;;;;;;;8.10;7.00;;;;;;;18.13;30.38;100360.66;5030865;28;20662;-65
2023/04/06 09:30:16;;;;;;;8.13;7.33;;;;;;;20.32;28.47;100350.53;5022129;28;20192;-65
2023/04/06 09:32:55;;;;;;;8.77;7.73;;;;;;;18.26;29.45;100350.06;5039546;28;20186;-65
2023/04/06 09:35:21;;;;;;;11.13;7.33;;;;;;;19.36;29.57;100343.38;5032418;28;20263;-65
2023/04/06 09:37:48;;;;;;;10.77;7.47;;;;;;;19.33;29.17;100343.66;5030783;28;20166;-65
2023/04/06 09:40:14;;;;;;;8.43;7.60;;;;;;;19.32;29.95;100345.44;5022385;28;20194;-67
2023/04/06 09:42:41;;;;;;;9.53;7.87;;;;;;;20.12;28.67;100347.16;5030695;28;20186;-67
2023/04/06 09:45:07;;;;;;;10.20;7.87;;;;;;;20.03;27.95;100347.97;5032312;28;20186;-66
2023/04/06 09:47:44;;;;;;;7.87;7.07;;;;;;;18.90;29.85;100342.16;5099420;27;20544;-65
2023/04/06 09:50:14;;;;;;;11.00;8.10;;;;;;;19.61;28.97;100343.81;5095474;27;20262;-65
2023/04/06 09:52:50;;;;;;;8.07;7.27;;;;;;;17.87;29.88;100347.16;5056554;28;20180;-65
2023/04/06 09:55:46;;;;;;;8.50;7.60;;;;;;;18.18;30.03;100335.09;5057835;28;20267;-66
2023/04/06 09:58:19;;;;;;;8.93;8.03;;;;;;;17.41;32.71;100336.94;5026018;28;20506;-66
2023/04/06 10:01:01;;;;;;;10.07;8.27;;;;;;;17.34;32.56;100340.13;5020715;28;20257;-64
2023/04/06 10:03:54;;;;;;;10.77;9.20;;;;;;;19.03;29.90;100333.16;5040016;28;20834;-66
2023/04/06 10:06:23;;;;;;;8.90;8.10;;;;;;;17.38;32.31;100336.34;5044669;28;20244;-65
2023/04/06 10:08:54;;;;;;;9.90;8.27;;;;;;;18.62;31.90;100334.91;5044976;28;20201;-65
2023/04/06 10:11:19;;;;;;;8.93;8.03;;;;;;;19.70;30.31;100335.19;5035024;28;20351;-66
2023/04/06 10:13:47;;;;;;;11.47;9.00;;;;;;;19.19;29.57;100327.44;5044629;28;20495;-65
2023/04/06 10:16:14;;;;;;;8.77;7.97;;;;;;;18.35;32.09;100325.84;5045213;28;20618;-65
2023/04/06 10:18:45;;;;;;;9.70;8.53;;;;;;;19.82;29.56;100318.44;5045518;28;20303;-65
2023/04/06 10:21:17;;;;;;;9.30;8.40;;;;;;;21.08;27.39;100315.59;5035337;28;20217;-66
2023/04/06 10:23:50;;;;;;;10.20;8.50;;;;;;;17.83;30.04;100323.16;5045458;28;20216;-65
2023/04/06 10:26:20;;;;;;;10.13;9.00;;;;;;;16.34;34.19;100322.66;5045480;28;20225;-66
2023/04/06 10:28:47;;;;;;;10.27;8.80;;;;;;;16.07;33.44;100327.19;5044535;28;20182;-66
2023/04/06 10:31:12;;;;;;;11.90;10.40;;;;;;;15.37;34.74;100314.94;5035095;28;20229;-66
2023/04/06 10:33:38;;;;;;;10.77;9.13;;;;;;;14.34;37.22;100315.91;5045563;28;20277;-67
2023/04/06 10:36:23;;;;;;;10.67;8.93;;;;;;;14.90;37.62;100320.78;5047016;28;20186;-67
2023/04/06 10:38:55;;;;;;;12.03;9.20;;;;;;;15.89;37.13;100316.41;5045887;28;20185;-66
2023/04/06 10:41:21;;;;;;;10.57;9.40;;;;;;;15.28;36.04;100311.25;5057741;28;20228;-66
2023/04/06 10:43:56;;;;;;;12.40;9.50;;;;;;;14.45;38.88;100313.44;5076744;28;20704;-66
2023/04/06 10:46:26;;;;;;;12.73;10.07;;;;;;;14.03;37.53;100311.00;5068696;28;20796;-68
2023/04/06 10:48:51;;;;;;;13.23;9.40;;;;;;;14.51;37.64;100300.09;5069437;28;20173;-67
2023/04/06 10:51:18;;;;;;;11.07;9.20;;;;;;;13.97;39.39;100300.25;5063492;28;20274;-67
2023/04/06 10:53:46;;;;;;;11.80;9.20;;;;;;;14.27;39.18;100293.97;5058145;28;20255;-68
2023/04/06 10:56:14;;;;;;;11.63;9.63;;;;;;;13.98;40.20;100299.28;5071918;28;20647;-67
2023/04/06 10:58:52;;;;;;;11.40;10.10;;;;;;;14.02;38.80;100293.00;5068769;28;20197;-67
2023/04/06 11:01:20;;;;;;;15.73;10.07;;;;;;;14.75;39.11;100291.59;5040841;28;20784;-66
2023/04/06 11:03:54;;;;;;;12.13;9.83;;;;;;;15.35;38.38;100286.56;5071950;28;20173;-67
2023/04/06 11:06:20;;;;;;;15.43;10.27;;;;;;;14.48;38.75;100289.94;5069224;28;20220;-66
2023/04/06 11:08:46;;;;;;;12.70;9.63;;;;;;;14.07;40.39;100290.94;5054510;28;20235;-69
2023/04/06 11:11:18;;;;;;;14.13;11.37;;;;;;;13.25;41.18;100288.41;5065138;28;20444;-68